sensor_id;sensor_type;location;lat;lon;timestamp;P1;P2;P0
73687;PMS7003;62257;48.376;-4.378;2022-12-31T00:01:10;10.25;7.75;3.00
73687;PMS7003;62257;48.376;-4.378;2022-12-31T00:03:37;7.25;5.00;2.75
73687;PMS7003;62257;48.376;-4.378;2022-12-31T00:06:14;10.00;7.00;3.25
73687;PMS7003;62257;48.376;-4.378;2022-12-31T00:09:00;8.00;3.75;1.00
73687;PMS7003;62257;48.376;-4.378;2022-12-31T00:11:27;15.50;5.25;3.25
73687;PMS7003;62257;48.376;-4.378;2022-12-31T00:13:53;8.25;5.50;3.00
73687;PMS7003;62257;48.376;-4.378;2022-12-31T00:16:23;9.25;5.50;3.25
73687;PMS7003;62257;48.376;-4.378;2022-12-31T00:18:52;9.75;7.00;3.00
73687;PMS7003;62257;48.376;-4.378;2022-12-31T00:21:19;11.25;6.75;3.50
73687;PMS7003;62257;48.376;-4.378;2022-12-31T00:23:46;12.75;7.50;3.50
73687;PMS7003;62257;48.376;-4.378;2022-12-31T00:26:13;10.75;7.50;3.00
73687;PMS7003;62257;48.376;-4.378;2022-12-31T00:28:40;12.25;7.75;3.50
73687;PMS7003;62257;48.376;-4.378;2022-12-31T00:31:10;8.00;4.00;3.00
73687;PMS7003;62257;48.376;-4.378;2022-12-31T00:33:41;6.75;5.00;3.00
73687;PMS7003;62257;48.376;-4.378;2022-12-31T00:36:11;8.00;3.75;2.00
73687;PMS7003;62257;48.376;-4.378;2022-12-31T00:38:41;9.75;5.25;2.00
73687;PMS7003;62257;48.376;-4.378;2022-12-31T00:41:08;4.00;2.00;1.50
73687;PMS7003;62257;48.376;-4.378;2022-12-31T00:43:33;12.00;5.00;2.75
73687;PMS7003;62257;48.376;-4.378;2022-12-31T00:46:00;6.75;5.00;2.75
73687;PMS7003;62257;48.376;-4.378;2022-12-31T00:48:26;11.50;8.75;4.25
73687;PMS7003;62257;48.376;-4.378;2022-12-31T00:50:52;10.25;4.50;4.00
73687;PMS7003;62257;48.376;-4.378;2022-12-31T00:53:17;7.00;7.00;4.00
73687;PMS7003;62257;48.376;-4.378;2022-12-31T00:55:43;12.00;7.00;2.75
73687;PMS7003;62257;48.376;-4.378;2022-12-31T00:58:08;9.00;5.00;3.00
73687;PMS7003;62257;48.376;-4.378;2022-12-31T01:00:35;9.00;6.50;3.50
73687;PMS7003;62257;48.376;-4.378;2022-12-31T01:03:01;9.00;4.75;2.50
73687;PMS7003;62257;48.376;-4.378;2022-12-31T01:05:28;9.25;3.25;1.00
73687;PMS7003;62257;48.376;-4.378;2022-12-31T01:07:54;10.25;4.00;3.00
73687;PMS7003;62257;48.376;-4.378;2022-12-31T01:10:19;10.50;4.50;1.75
73687;PMS7003;62257;48.376;-4.378;2022-12-31T01:13:04;8.00;5.25;3.75
73687;PMS7003;62257;48.376;-4.378;2022-12-31T01:15:33;6.50;2.50;2.00
73687;PMS7003;62257;48.376;-4.378;2022-12-31T01:18:01;3.50;2.75;0.00
73687;PMS7003;62257;48.376;-4.378;2022-12-31T01:20:27;5.50;5.00;3.00
73687;PMS7003;62257;48.376;-4.378;2022-12-31T01:22:53;5.25;2.25;1.25
73687;PMS7003;62257;48.376;-4.378;2022-12-31T01:25:18;4.00;2.25;1.00
73687;PMS7003;62257;48.376;-4.378;2022-12-31T01:27:44;3.25;1.50;1.00
73687;PMS7003;62257;48.376;-4.378;2022-12-31T01:30:09;3.25;2.00;0.75
73687;PMS7003;62257;48.376;-4.378;2022-12-31T01:32:35;4.50;1.75;1.00
73687;PMS7003;62257;48.376;-4.378;2022-12-31T01:35:00;3.50;1.25;1.00
73687;PMS7003;62257;48.376;-4.378;2022-12-31T01:37:26;6.25;0.00;0.00
73687;PMS7003;62257;48.376;-4.378;2022-12-31T01:39:52;3.50;0.25;0.00
73687;PMS7003;62257;48.376;-4.378;2022-12-31T01:42:17;4.00;2.00;1.00
73687;PMS7003;62257;48.376;-4.378;2022-12-31T01:44:47;0.00;0.00;0.00
73687;PMS7003;62257;48.376;-4.378;2022-12-31T01:47:16;4.75;1.50;0.00
73687;PMS7003;62257;48.376;-4.378;2022-12-31T01:49:50;2.00;1.00;1.00
73687;PMS7003;62257;48.376;-4.378;2022-12-31T01:52:33;2.75;0.00;0.00
73687;PMS7003;62257;48.376;-4.378;2022-12-31T01:57:36;4.25;1.50;0.50
73687;PMS7003;62257;48.376;-4.378;2022-12-31T02:00:03;4.00;2.50;1.00
73687;PMS7003;62257;48.376;-4.378;2022-12-31T02:02:30;1.00;0.25;0.00
73687;PMS7003;62257;48.376;-4.378;2022-12-31T02:04:56;6.00;1.75;0.00
73687;PMS7003;62257;48.376;-4.378;2022-12-31T02:07:23;6.75;3.25;2.00
73687;PMS7003;62257;48.376;-4.378;2022-12-31T02:09:49;2.00;0.75;0.00
73687;PMS7003;62257;48.376;-4.378;2022-12-31T02:12:15;0.00;0.00;0.00
73687;PMS7003;62257;48.376;-4.378;2022-12-31T02:14:41;3.00;0.00;0.00
73687;PMS7003;62257;48.376;-4.378;2022-12-31T02:30:59;4.75;2.00;1.50
73687;PMS7003;62257;48.376;-4.378;2022-12-31T02:33:43;3.75;1.50;1.00
73687;PMS7003;62257;48.376;-4.378;2022-12-31T02:36:21;1.50;1.50;0.75
73687;PMS7003;62257;48.376;-4.378;2022-12-31T02:38:51;7.75;2.00;1.00
73687;PMS7003;62257;48.376;-4.378;2022-12-31T02:41:19;5.00;1.50;0.00
73687;PMS7003;62257;48.376;-4.378;2022-12-31T02:49:37;2.75;1.75;1.00
73687;PMS7003;62257;48.376;-4.378;2022-12-31T02:57:48;7.25;2.25;1.00
73687;PMS7003;62257;48.376;-4.378;2022-12-31T03:00:21;4.50;3.50;2.00
73687;PMS7003;62257;48.376;-4.378;2022-12-31T03:03:06;9.25;4.50;2.25
73687;PMS7003;62257;48.376;-4.378;2022-12-31T03:05:33;10.50;4.50;2.00
73687;PMS7003;62257;48.376;-4.378;2022-12-31T03:08:02;4.25;3.00;1.00
73687;PMS7003;62257;48.376;-4.378;2022-12-31T03:10:28;11.25;4.00;2.00
73687;PMS7003;62257;48.376;-4.378;2022-12-31T03:12:53;7.75;5.25;3.00
73687;PMS7003;62257;48.376;-4.378;2022-12-31T03:15:26;12.50;6.00;3.00
73687;PMS7003;62257;48.376;-4.378;2022-12-31T03:18:04;13.00;4.25;2.00
73687;PMS7003;62257;48.376;-4.378;2022-12-31T03:20:41;3.25;3.25;1.00
73687;PMS7003;62257;48.376;-4.378;2022-12-31T03:23:28;6.00;4.25;3.00
73687;PMS7003;62257;48.376;-4.378;2022-12-31T03:25:59;8.75;5.25;3.00
73687;PMS7003;62257;48.376;-4.378;2022-12-31T03:28:27;7.75;5.25;2.75
73687;PMS7003;62257;48.376;-4.378;2022-12-31T03:30:56;7.50;3.75;2.00
73687;PMS7003;62257;48.376;-4.378;2022-12-31T03:33:23;3.00;2.00;0.00
73687;PMS7003;62257;48.376;-4.378;2022-12-31T03:35:50;9.75;4.75;3.00
73687;PMS7003;62257;48.376;-4.378;2022-12-31T03:38:17;12.00;7.25;4.00
73687;PMS7003;62257;48.376;-4.378;2022-12-31T03:40:44;6.25;5.25;2.75
73687;PMS7003;62257;48.376;-4.378;2022-12-31T03:43:11;10.00;4.25;1.50
73687;PMS7003;62257;48.376;-4.378;2022-12-31T03:45:37;7.75;5.50;2.25
73687;PMS7003;62257;48.376;-4.378;2022-12-31T03:48:04;8.00;5.00;0.00
73687;PMS7003;62257;48.376;-4.378;2022-12-31T03:50:31;13.50;6.00;3.00
73687;PMS7003;62257;48.376;-4.378;2022-12-31T03:52:56;5.75;4.00;2.00
73687;PMS7003;62257;48.376;-4.378;2022-12-31T03:55:22;8.50;4.25;2.00
73687;PMS7003;62257;48.376;-4.378;2022-12-31T03:57:47;8.00;4.50;3.00
73687;PMS7003;62257;48.376;-4.378;2022-12-31T04:00:13;5.50;2.00;1.00
73687;PMS7003;62257;48.376;-4.378;2022-12-31T04:02:42;4.00;3.25;2.00
73687;PMS7003;62257;48.376;-4.378;2022-12-31T04:05:08;8.25;3.50;2.50
73687;PMS7003;62257;48.376;-4.378;2022-12-31T04:07:34;5.75;3.25;2.00
73687;PMS7003;62257;48.376;-4.378;2022-12-31T04:09:59;8.75;5.50;3.00
73687;PMS7003;62257;48.376;-4.378;2022-12-31T04:12:25;7.75;4.00;2.00
73687;PMS7003;62257;48.376;-4.378;2022-12-31T04:14:50;7.00;3.75;2.00
73687;PMS7003;62257;48.376;-4.378;2022-12-31T04:17:15;11.00;2.75;1.00
73687;PMS7003;62257;48.376;-4.378;2022-12-31T04:19:41;6.25;3.00;2.00
73687;PMS7003;62257;48.376;-4.378;2022-12-31T04:22:06;6.75;4.00;2.75
73687;PMS7003;62257;48.376;-4.378;2022-12-31T04:24:32;4.75;3.25;2.00
73687;PMS7003;62257;48.376;-4.378;2022-12-31T04:26:58;3.25;2.50;1.00
73687;PMS7003;62257;48.376;-4.378;2022-12-31T04:29:23;4.25;1.25;0.00
73687;PMS7003;62257;48.376;-4.378;2022-12-31T04:31:49;2.75;2.00;1.00
73687;PMS7003;62257;48.376;-4.378;2022-12-31T04:34:14;4.50;2.75;1.00
73687;PMS7003;62257;48.376;-4.378;2022-12-31T04:36:40;7.50;4.00;2.25
73687;PMS7003;62257;48.376;-4.378;2022-12-31T04:39:05;9.25;5.00;3.00
73687;PMS7003;62257;48.376;-4.378;2022-12-31T04:41:31;7.50;4.00;2.00
73687;PMS7003;62257;48.376;-4.378;2022-12-31T04:43:56;5.25;3.75;2.25
73687;PMS7003;62257;48.376;-4.378;2022-12-31T04:46:24;8.50;6.75;4.00
73687;PMS7003;62257;48.376;-4.378;2022-12-31T04:48:51;11.00;6.25;3.00
73687;PMS7003;62257;48.376;-4.378;2022-12-31T04:51:17;9.25;4.00;2.00
73687;PMS7003;62257;48.376;-4.378;2022-12-31T04:53:43;8.50;5.00;3.50
73687;PMS7003;62257;48.376;-4.378;2022-12-31T04:56:09;4.00;3.00;2.50
73687;PMS7003;62257;48.376;-4.378;2022-12-31T04:58:35;12.00;5.75;3.25
73687;PMS7003;62257;48.376;-4.378;2022-12-31T05:01:02;7.00;4.00;2.25
73687;PMS7003;62257;48.376;-4.378;2022-12-31T05:03:27;7.25;5.50;3.75
73687;PMS7003;62257;48.376;-4.378;2022-12-31T05:05:53;8.00;5.00;2.00
73687;PMS7003;62257;48.376;-4.378;2022-12-31T05:08:23;8.25;4.75;3.00
73687;PMS7003;62257;48.376;-4.378;2022-12-31T05:10:48;10.50;3.50;2.25
73687;PMS7003;62257;48.376;-4.378;2022-12-31T05:13:14;6.75;3.00;2.00
73687;PMS7003;62257;48.376;-4.378;2022-12-31T05:15:40;8.00;5.50;3.00
73687;PMS7003;62257;48.376;-4.378;2022-12-31T05:18:05;4.50;2.25;1.75
73687;PMS7003;62257;48.376;-4.378;2022-12-31T05:20:32;3.25;2.00;2.00
73687;PMS7003;62257;48.376;-4.378;2022-12-31T05:22:58;4.75;2.00;2.00
73687;PMS7003;62257;48.376;-4.378;2022-12-31T05:25:23;6.00;2.25;1.00
73687;PMS7003;62257;48.376;-4.378;2022-12-31T05:27:49;5.25;4.00;1.75
73687;PMS7003;62257;48.376;-4.378;2022-12-31T05:30:14;5.25;1.75;0.50
73687;PMS7003;62257;48.376;-4.378;2022-12-31T05:32:42;5.25;2.00;1.00
73687;PMS7003;62257;48.376;-4.378;2022-12-31T05:35:08;5.75;2.75;1.75
73687;PMS7003;62257;48.376;-4.378;2022-12-31T05:37:33;4.50;2.75;1.00
73687;PMS7003;62257;48.376;-4.378;2022-12-31T05:39:59;5.00;2.00;1.00
73687;PMS7003;62257;48.376;-4.378;2022-12-31T05:42:24;1.75;1.00;1.00
73687;PMS7003;62257;48.376;-4.378;2022-12-31T05:44:50;1.50;1.00;0.00
73687;PMS7003;62257;48.376;-4.378;2022-12-31T05:47:16;3.00;1.50;0.00
73687;PMS7003;62257;48.376;-4.378;2022-12-31T05:49:42;2.00;0.75;0.50
73687;PMS7003;62257;48.376;-4.378;2022-12-31T05:52:07;1.00;1.00;0.75
73687;PMS7003;62257;48.376;-4.378;2022-12-31T05:54:33;1.00;1.00;0.50
73687;PMS7003;62257;48.376;-4.378;2022-12-31T05:56:58;3.75;2.00;1.00
73687;PMS7003;62257;48.376;-4.378;2022-12-31T05:59:24;3.00;2.50;1.00
73687;PMS7003;62257;48.376;-4.378;2022-12-31T06:01:49;1.00;1.00;0.00
73687;PMS7003;62257;48.376;-4.378;2022-12-31T06:04:15;5.00;2.25;0.00
73687;PMS7003;62257;48.376;-4.378;2022-12-31T06:06:40;3.25;1.50;0.25
73687;PMS7003;62257;48.376;-4.378;2022-12-31T06:09:06;2.00;1.50;1.00
73687;PMS7003;62257;48.376;-4.378;2022-12-31T06:11:31;3.75;1.00;0.00
73687;PMS7003;62257;48.376;-4.378;2022-12-31T06:13:56;1.75;1.00;0.25
73687;PMS7003;62257;48.376;-4.378;2022-12-31T06:16:25;3.00;1.00;0.00
73687;PMS7003;62257;48.376;-4.378;2022-12-31T06:18:50;2.50;1.00;0.00
73687;PMS7003;62257;48.376;-4.378;2022-12-31T06:21:16;0.50;0.50;0.00
73687;PMS7003;62257;48.376;-4.378;2022-12-31T06:23:43;2.25;1.00;1.00
73687;PMS7003;62257;48.376;-4.378;2022-12-31T06:26:08;1.00;1.00;0.00
73687;PMS7003;62257;48.376;-4.378;2022-12-31T06:28:33;4.00;1.00;0.50
73687;PMS7003;62257;48.376;-4.378;2022-12-31T06:31:04;5.00;2.00;1.00
73687;PMS7003;62257;48.376;-4.378;2022-12-31T06:33:32;1.50;1.25;0.75
73687;PMS7003;62257;48.376;-4.378;2022-12-31T06:35:59;2.75;2.00;1.00
73687;PMS7003;62257;48.376;-4.378;2022-12-31T06:38:26;1.25;1.00;0.00
73687;PMS7003;62257;48.376;-4.378;2022-12-31T06:40:52;2.75;1.00;0.00
73687;PMS7003;62257;48.376;-4.378;2022-12-31T06:43:18;0.50;0.00;0.00
73687;PMS7003;62257;48.376;-4.378;2022-12-31T06:45:44;3.25;1.00;1.00
73687;PMS7003;62257;48.376;-4.378;2022-12-31T06:48:09;3.25;3.25;1.00
73687;PMS7003;62257;48.376;-4.378;2022-12-31T06:50:35;3.00;1.25;1.00
73687;PMS7003;62257;48.376;-4.378;2022-12-31T06:53:00;3.25;3.25;2.00
73687;PMS7003;62257;48.376;-4.378;2022-12-31T06:55:26;2.00;1.00;0.00
73687;PMS7003;62257;48.376;-4.378;2022-12-31T06:57:52;5.50;2.00;2.00
73687;PMS7003;62257;48.376;-4.378;2022-12-31T07:00:18;5.50;4.75;3.00
73687;PMS7003;62257;48.376;-4.378;2022-12-31T07:08:13;7.25;3.25;2.00
73687;PMS7003;62257;48.376;-4.378;2022-12-31T07:18:36;9.50;7.00;5.00
73687;PMS7003;62257;48.376;-4.378;2022-12-31T07:21:20;13.25;9.25;5.00
73687;PMS7003;62257;48.376;-4.378;2022-12-31T07:23:56;19.50;14.00;6.50
73687;PMS7003;62257;48.376;-4.378;2022-12-31T07:29:38;18.50;11.00;7.75
73687;PMS7003;62257;48.376;-4.378;2022-12-31T07:35:21;16.75;8.25;5.00
73687;PMS7003;62257;48.376;-4.378;2022-12-31T07:38:01;24.75;17.50;8.50
73687;PMS7003;62257;48.376;-4.378;2022-12-31T07:46:39;21.75;14.50;7.25
73687;PMS7003;62257;48.376;-4.378;2022-12-31T07:49:11;24.00;17.50;9.50
73687;PMS7003;62257;48.376;-4.378;2022-12-31T07:51:37;22.50;12.50;6.75
73687;PMS7003;62257;48.376;-4.378;2022-12-31T07:54:03;20.75;14.00;6.75
73687;PMS7003;62257;48.376;-4.378;2022-12-31T07:56:29;25.50;17.25;8.00
73687;PMS7003;62257;48.376;-4.378;2022-12-31T08:01:51;17.00;13.25;8.00
73687;PMS7003;62257;48.376;-4.378;2022-12-31T08:07:30;18.50;13.50;5.75
73687;PMS7003;62257;48.376;-4.378;2022-12-31T08:13:00;20.25;11.75;6.00
73687;PMS7003;62257;48.376;-4.378;2022-12-31T08:15:27;20.75;17.50;9.00
73687;PMS7003;62257;48.376;-4.378;2022-12-31T08:17:53;20.25;16.75;7.00
73687;PMS7003;62257;48.376;-4.378;2022-12-31T08:20:19;21.50;15.25;7.75
73687;PMS7003;62257;48.376;-4.378;2022-12-31T08:22:50;25.00;12.75;7.75
73687;PMS7003;62257;48.376;-4.378;2022-12-31T08:28:25;22.25;17.00;9.25
73687;PMS7003;62257;48.376;-4.378;2022-12-31T08:31:07;11.00;10.75;7.50
73687;PMS7003;62257;48.376;-4.378;2022-12-31T08:33:40;20.25;9.25;6.00
73687;PMS7003;62257;48.376;-4.378;2022-12-31T08:36:55;22.25;16.50;8.00
73687;PMS7003;62257;48.376;-4.378;2022-12-31T08:41:38;24.75;16.25;8.00
73687;PMS7003;62257;48.376;-4.378;2022-12-31T08:49:41;23.25;13.75;8.00
73687;PMS7003;62257;48.376;-4.378;2022-12-31T08:52:12;23.25;13.50;6.50
73687;PMS7003;62257;48.376;-4.378;2022-12-31T08:54:40;22.50;17.75;8.50
73687;PMS7003;62257;48.376;-4.378;2022-12-31T08:57:10;18.00;10.75;8.00
73687;PMS7003;62257;48.376;-4.378;2022-12-31T09:10:46;20.25;13.25;5.25
73687;PMS7003;62257;48.376;-4.378;2022-12-31T09:13:38;24.75;18.50;9.75
73687;PMS7003;62257;48.376;-4.378;2022-12-31T09:16:23;22.25;15.75;7.75
73687;PMS7003;62257;48.376;-4.378;2022-12-31T09:19:12;14.00;10.50;2.50
73687;PMS7003;62257;48.376;-4.378;2022-12-31T09:21:40;26.50;16.00;8.50
73687;PMS7003;62257;48.376;-4.378;2022-12-31T09:24:09;21.25;15.75;9.00
73687;PMS7003;62257;48.376;-4.378;2022-12-31T09:26:45;10.50;7.00;0.00
73687;PMS7003;62257;48.376;-4.378;2022-12-31T09:34:45;17.75;16.00;9.00
73687;PMS7003;62257;48.376;-4.378;2022-12-31T09:37:14;24.25;15.25;6.50
73687;PMS7003;62257;48.376;-4.378;2022-12-31T09:39:46;24.75;16.00;9.00
73687;PMS7003;62257;48.376;-4.378;2022-12-31T09:53:17;19.00;16.00;7.50
73687;PMS7003;62257;48.376;-4.378;2022-12-31T09:56:04;18.50;13.00;8.50
73687;PMS7003;62257;48.376;-4.378;2022-12-31T10:07:49;20.00;15.00;8.50
73687;PMS7003;62257;48.376;-4.378;2022-12-31T10:10:29;21.00;13.50;8.00
73687;PMS7003;62257;48.376;-4.378;2022-12-31T10:13:08;19.75;15.00;10.00
73687;PMS7003;62257;48.376;-4.378;2022-12-31T10:16:04;19.75;13.00;7.25
73687;PMS7003;62257;48.376;-4.378;2022-12-31T10:37:46;19.00;14.00;8.25
73687;PMS7003;62257;48.376;-4.378;2022-12-31T10:40:47;18.50;10.00;6.75
73687;PMS7003;62257;48.376;-4.378;2022-12-31T10:52:24;16.25;14.00;8.75
73687;PMS7003;62257;48.376;-4.378;2022-12-31T10:54:58;21.00;14.25;7.75
73687;PMS7003;62257;48.376;-4.378;2022-12-31T11:08:43;15.25;9.50;5.00
73687;PMS7003;62257;48.376;-4.378;2022-12-31T11:14:47;17.25;10.25;5.50
73687;PMS7003;62257;48.376;-4.378;2022-12-31T11:19:45;14.25;12.50;7.75
73687;PMS7003;62257;48.376;-4.378;2022-12-31T11:22:28;18.75;13.25;8.00
73687;PMS7003;62257;48.376;-4.378;2022-12-31T11:45:10;19.25;13.25;8.00
73687;PMS7003;62257;48.376;-4.378;2022-12-31T11:50:52;17.25;14.50;7.25
73687;PMS7003;62257;48.376;-4.378;2022-12-31T11:53:27;8.75;7.25;3.50
73687;PMS7003;62257;48.376;-4.378;2022-12-31T11:56:11;16.50;13.75;8.50
73687;PMS7003;62257;48.376;-4.378;2022-12-31T11:58:44;20.25;15.75;8.25
73687;PMS7003;62257;48.376;-4.378;2022-12-31T12:01:23;24.50;14.75;8.00
73687;PMS7003;62257;48.376;-4.378;2022-12-31T12:03:56;18.50;14.50;8.00
73687;PMS7003;62257;48.376;-4.378;2022-12-31T12:06:26;18.75;16.25;9.50
73687;PMS7003;62257;48.376;-4.378;2022-12-31T12:09:06;19.25;12.00;8.75
73687;PMS7003;62257;48.376;-4.378;2022-12-31T12:11:38;22.50;17.00;10.00
73687;PMS7003;62257;48.376;-4.378;2022-12-31T12:14:20;23.00;15.75;8.00
73687;PMS7003;62257;48.376;-4.378;2022-12-31T12:16:55;18.50;17.00;9.00
73687;PMS7003;62257;48.376;-4.378;2022-12-31T12:19:22;19.00;13.25;7.00
73687;PMS7003;62257;48.376;-4.378;2022-12-31T12:21:51;19.50;12.75;8.00
73687;PMS7003;62257;48.376;-4.378;2022-12-31T12:24:29;24.50;13.75;7.25
73687;PMS7003;62257;48.376;-4.378;2022-12-31T12:26:55;16.50;11.25;7.25
73687;PMS7003;62257;48.376;-4.378;2022-12-31T12:34:32;18.50;12.25;6.00
73687;PMS7003;62257;48.376;-4.378;2022-12-31T12:37:00;16.00;11.50;5.25
73687;PMS7003;62257;48.376;-4.378;2022-12-31T12:39:27;14.50;8.75;6.00
73687;PMS7003;62257;48.376;-4.378;2022-12-31T12:42:02;21.75;14.75;8.25
73687;PMS7003;62257;48.376;-4.378;2022-12-31T12:44:29;21.00;15.50;8.00
73687;PMS7003;62257;48.376;-4.378;2022-12-31T12:46:55;16.25;12.75;7.25
73687;PMS7003;62257;48.376;-4.378;2022-12-31T12:49:29;13.00;8.25;5.00
73687;PMS7003;62257;48.376;-4.378;2022-12-31T12:57:49;25.25;14.00;6.25
73687;PMS7003;62257;48.376;-4.378;2022-12-31T13:00:21;29.25;15.50;9.25
73687;PMS7003;62257;48.376;-4.378;2022-12-31T13:05:52;26.50;15.75;8.25
73687;PMS7003;62257;48.376;-4.378;2022-12-31T13:17:13;20.25;14.50;7.50
73687;PMS7003;62257;48.376;-4.378;2022-12-31T13:22:22;15.75;10.25;6.00
73687;PMS7003;62257;48.376;-4.378;2022-12-31T13:27:38;15.50;10.00;6.25
73687;PMS7003;62257;48.376;-4.378;2022-12-31T13:33:17;17.25;13.00;8.50
73687;PMS7003;62257;48.376;-4.378;2022-12-31T13:35:48;17.75;12.25;7.00
73687;PMS7003;62257;48.376;-4.378;2022-12-31T13:38:22;17.75;11.00;8.00
73687;PMS7003;62257;48.376;-4.378;2022-12-31T13:51:41;17.25;12.50;6.50
73687;PMS7003;62257;48.376;-4.378;2022-12-31T13:54:12;20.75;15.75;8.75
73687;PMS7003;62257;48.376;-4.378;2022-12-31T13:56:52;15.25;11.75;8.00
73687;PMS7003;62257;48.376;-4.378;2022-12-31T13:59:22;19.75;9.75;4.25
73687;PMS7003;62257;48.376;-4.378;2022-12-31T14:02:02;13.25;10.00;6.50
73687;PMS7003;62257;48.376;-4.378;2022-12-31T14:04:48;21.00;15.75;9.00
73687;PMS7003;62257;48.376;-4.378;2022-12-31T14:07:18;18.75;12.75;4.50
73687;PMS7003;62257;48.376;-4.378;2022-12-31T14:09:47;17.25;6.50;5.00
73687;PMS7003;62257;48.376;-4.378;2022-12-31T14:25:37;18.00;13.50;8.25
73687;PMS7003;62257;48.376;-4.378;2022-12-31T14:28:18;23.75;17.50;11.50
73687;PMS7003;62257;48.376;-4.378;2022-12-31T14:30:47;33.00;22.00;12.00
73687;PMS7003;62257;48.376;-4.378;2022-12-31T14:41:54;31.00;20.00;11.25
73687;PMS7003;62257;48.376;-4.378;2022-12-31T14:47:13;30.00;22.00;12.50
73687;PMS7003;62257;48.376;-4.378;2022-12-31T14:52:28;23.75;19.25;10.00
73687;PMS7003;62257;48.376;-4.378;2022-12-31T14:55:41;15.50;12.25;8.00
73687;PMS7003;62257;48.376;-4.378;2022-12-31T14:58:18;29.75;20.50;13.00
73687;PMS7003;62257;48.376;-4.378;2022-12-31T15:00:54;20.00;16.00;11.75
73687;PMS7003;62257;48.376;-4.378;2022-12-31T15:16:36;30.50;19.00;10.00
73687;PMS7003;62257;48.376;-4.378;2022-12-31T15:19:38;24.00;20.75;11.00
73687;PMS7003;62257;48.376;-4.378;2022-12-31T15:25:19;25.25;19.50;10.25
73687;PMS7003;62257;48.376;-4.378;2022-12-31T15:27:48;21.75;17.75;7.00
73687;PMS7003;62257;48.376;-4.378;2022-12-31T15:33:01;24.75;17.00;9.50
73687;PMS7003;62257;48.376;-4.378;2022-12-31T15:35:31;21.00;15.50;9.50
73687;PMS7003;62257;48.376;-4.378;2022-12-31T15:40:44;23.50;16.25;9.25
73687;PMS7003;62257;48.376;-4.378;2022-12-31T15:43:13;20.25;16.75;9.75
73687;PMS7003;62257;48.376;-4.378;2022-12-31T15:45:52;23.25;16.50;10.00
73687;PMS7003;62257;48.376;-4.378;2022-12-31T15:50:51;20.50;16.50;9.00
73687;PMS7003;62257;48.376;-4.378;2022-12-31T15:53:31;34.25;19.50;10.00
73687;PMS7003;62257;48.376;-4.378;2022-12-31T15:56:03;30.50;16.00;9.00
73687;PMS7003;62257;48.376;-4.378;2022-12-31T15:58:31;28.00;18.00;10.00
73687;PMS7003;62257;48.376;-4.378;2022-12-31T16:01:13;26.25;20.75;13.00
73687;PMS7003;62257;48.376;-4.378;2022-12-31T16:03:43;19.75;15.00;10.00
73687;PMS7003;62257;48.376;-4.378;2022-12-31T16:06:13;26.75;18.00;10.50
73687;PMS7003;62257;48.376;-4.378;2022-12-31T16:08:44;20.00;18.00;8.50
73687;PMS7003;62257;48.376;-4.378;2022-12-31T16:11:11;22.25;15.00;9.00
73687;PMS7003;62257;48.376;-4.378;2022-12-31T16:13:44;14.25;14.00;9.00
73687;PMS7003;62257;48.376;-4.378;2022-12-31T16:18:46;12.00;6.00;4.75
73687;PMS7003;62257;48.376;-4.378;2022-12-31T16:21:47;7.00;4.50;3.50
73687;PMS7003;62257;48.376;-4.378;2022-12-31T16:24:25;5.75;4.00;3.00
73687;PMS7003;62257;48.376;-4.378;2022-12-31T16:26:53;9.00;4.25;3.00
73687;PMS7003;62257;48.376;-4.378;2022-12-31T16:29:22;0.00;0.00;0.00
73687;PMS7003;62257;48.376;-4.378;2022-12-31T16:31:49;5.50;2.75;2.00
73687;PMS7003;62257;48.376;-4.378;2022-12-31T16:34:26;4.25;3.75;3.00
73687;PMS7003;62257;48.376;-4.378;2022-12-31T16:37:02;9.50;3.00;1.50
73687;PMS7003;62257;48.376;-4.378;2022-12-31T16:39:30;8.75;2.00;1.00
73687;PMS7003;62257;48.376;-4.378;2022-12-31T16:42:07;4.00;2.50;2.00
73687;PMS7003;62257;48.376;-4.378;2022-12-31T16:44:40;3.75;1.00;1.00
73687;PMS7003;62257;48.376;-4.378;2022-12-31T16:47:06;2.75;1.50;1.00
73687;PMS7003;62257;48.376;-4.378;2022-12-31T16:49:34;4.50;2.50;1.00
73687;PMS7003;62257;48.376;-4.378;2022-12-31T16:52:03;3.00;3.00;2.75
73687;PMS7003;62257;48.376;-4.378;2022-12-31T16:54:38;3.25;2.00;2.00
73687;PMS7003;62257;48.376;-4.378;2022-12-31T16:57:10;4.50;2.50;2.00
73687;PMS7003;62257;48.376;-4.378;2022-12-31T16:59:45;3.50;3.00;2.00
73687;PMS7003;62257;48.376;-4.378;2022-12-31T17:02:17;5.00;2.00;1.75
73687;PMS7003;62257;48.376;-4.378;2022-12-31T17:04:48;5.25;3.00;3.00
73687;PMS7003;62257;48.376;-4.378;2022-12-31T17:10:00;3.50;2.75;1.50
73687;PMS7003;62257;48.376;-4.378;2022-12-31T17:12:31;7.75;4.00;3.00
73687;PMS7003;62257;48.376;-4.378;2022-12-31T17:15:00;4.50;2.50;2.00
73687;PMS7003;62257;48.376;-4.378;2022-12-31T17:17:27;3.00;2.00;1.00
73687;PMS7003;62257;48.376;-4.378;2022-12-31T17:19:57;3.50;2.00;0.50
73687;PMS7003;62257;48.376;-4.378;2022-12-31T17:22:26;5.25;3.25;2.00
73687;PMS7003;62257;48.376;-4.378;2022-12-31T17:25:19;4.50;4.00;2.00
73687;PMS7003;62257;48.376;-4.378;2022-12-31T17:33:24;3.50;2.00;2.00
73687;PMS7003;62257;48.376;-4.378;2022-12-31T17:35:53;3.50;1.25;1.00
73687;PMS7003;62257;48.376;-4.378;2022-12-31T17:41:32;3.00;2.00;2.00
73687;PMS7003;62257;48.376;-4.378;2022-12-31T17:43:33;5.00;3.00;2.00
73687;PMS7003;62257;48.376;-4.378;2022-12-31T17:46:00;6.00;2.75;2.00
73687;PMS7003;62257;48.376;-4.378;2022-12-31T17:48:27;2.75;2.00;2.00
73687;PMS7003;62257;48.376;-4.378;2022-12-31T17:50:54;4.25;4.25;2.00
73687;PMS7003;62257;48.376;-4.378;2022-12-31T17:53:21;4.75;4.00;2.25
73687;PMS7003;62257;48.376;-4.378;2022-12-31T17:55:48;4.75;4.00;2.25
73687;PMS7003;62257;48.376;-4.378;2022-12-31T18:01:06;7.00;2.25;1.25
73687;PMS7003;62257;48.376;-4.378;2022-12-31T18:03:32;6.50;4.00;2.00
73687;PMS7003;62257;48.376;-4.378;2022-12-31T18:05:58;4.50;4.50;3.00
73687;PMS7003;62257;48.376;-4.378;2022-12-31T18:08:23;6.25;3.75;2.75
73687;PMS7003;62257;48.376;-4.378;2022-12-31T18:10:49;5.00;3.75;2.25
73687;PMS7003;62257;48.376;-4.378;2022-12-31T18:13:17;3.25;2.25;2.00
73687;PMS7003;62257;48.376;-4.378;2022-12-31T18:15:50;6.25;4.00;2.75
73687;PMS7003;62257;48.376;-4.378;2022-12-31T18:20:46;5.50;2.75;1.00
73687;PMS7003;62257;48.376;-4.378;2022-12-31T18:23:20;3.50;2.00;1.00
73687;PMS7003;62257;48.376;-4.378;2022-12-31T18:25:49;4.00;2.00;1.00
73687;PMS7003;62257;48.376;-4.378;2022-12-31T18:28:14;2.50;2.50;1.00
73687;PMS7003;62257;48.376;-4.378;2022-12-31T18:30:40;4.75;3.25;2.00
73687;PMS7003;62257;48.376;-4.378;2022-12-31T18:33:08;6.25;3.00;1.50
73687;PMS7003;62257;48.376;-4.378;2022-12-31T18:35:35;4.00;2.50;1.00
73687;PMS7003;62257;48.376;-4.378;2022-12-31T18:38:01;1.50;1.50;1.00
73687;PMS7003;62257;48.376;-4.378;2022-12-31T18:40:27;10.75;3.00;1.75
73687;PMS7003;62257;48.376;-4.378;2022-12-31T18:42:52;5.25;2.00;1.75
73687;PMS7003;62257;48.376;-4.378;2022-12-31T18:45:18;2.00;2.00;1.25
73687;PMS7003;62257;48.376;-4.378;2022-12-31T18:47:44;3.00;2.75;2.00
73687;PMS7003;62257;48.376;-4.378;2022-12-31T18:50:14;9.25;4.25;1.50
73687;PMS7003;62257;48.376;-4.378;2022-12-31T18:52:40;6.25;2.00;1.25
73687;PMS7003;62257;48.376;-4.378;2022-12-31T18:55:18;5.25;2.50;1.75
73687;PMS7003;62257;48.376;-4.378;2022-12-31T18:57:47;2.25;2.00;1.00
73687;PMS7003;62257;48.376;-4.378;2022-12-31T19:00:13;3.75;2.00;1.50
73687;PMS7003;62257;48.376;-4.378;2022-12-31T19:02:38;3.00;3.00;2.00
73687;PMS7003;62257;48.376;-4.378;2022-12-31T19:05:23;4.50;2.25;1.00
73687;PMS7003;62257;48.376;-4.378;2022-12-31T19:07:53;1.50;1.50;1.00
73687;PMS7003;62257;48.376;-4.378;2022-12-31T19:10:19;1.00;0.25;0.00